createdAt,value
2022-11-10T00:02:05.371Z,100248.19
2022-11-10T00:04:50.440Z,100213.03
2022-11-10T00:07:36.023Z,100273.59
2022-11-10T00:10:21.343Z,100277.06
2022-11-10T00:13:06.407Z,100250.09
2022-11-10T00:16:10.548Z,100286.59
2022-11-10T00:18:55.874Z,100281.88
2022-11-10T00:21:41.360Z,100291.16
2022-11-10T00:24:27.371Z,100286.75
2022-11-10T00:27:14.671Z,100298.78
2022-11-10T00:30:00.313Z,100289.00
2022-11-10T00:32:48.147Z,100292.97
2022-11-10T00:35:33.444Z,100274.50
2022-11-10T00:38:18.841Z,100295.88
2022-11-10T00:41:04.184Z,100294.22
2022-11-10T00:43:49.714Z,100292.25
2022-11-10T00:46:35.115Z,100307.84
2022-11-10T00:49:20.223Z,100322.88
2022-11-10T00:52:05.414Z,100317.09
2022-11-10T00:54:50.460Z,100321.34
2022-11-10T00:57:35.575Z,100317.94
2022-11-10T01:00:20.971Z,100269.75
2022-11-10T01:03:07.032Z,100303.34
2022-11-10T01:05:52.467Z,100306.88
2022-11-10T01:08:38.478Z,100326.41
2022-11-10T01:11:26.976Z,100332.59
2022-11-10T01:14:12.271Z,100343.53
2022-11-10T01:16:57.389Z,100349.03
2022-11-10T01:19:42.598Z,100345.94
2022-11-10T01:22:27.781Z,100347.63
2022-11-10T01:25:13.090Z,100338.22
2022-11-10T01:27:58.687Z,100334.44
2022-11-10T01:30:43.849Z,100380.16
2022-11-10T01:33:29.707Z,100365.25
2022-11-10T01:36:15.282Z,100367.22
2022-11-10T01:39:00.905Z,100379.97
2022-11-10T01:41:46.386Z,100379.31
2022-11-10T01:44:31.834Z,100368.22
2022-11-10T01:47:17.321Z,100393.38
2022-11-10T01:50:02.716Z,100390.72
2022-11-10T01:52:52.136Z,100389.53
2022-11-10T01:55:41.367Z,100394.97
2022-11-10T01:58:32.871Z,100395.63
2022-11-10T02:01:18.585Z,100389.63
2022-11-10T02:04:07.338Z,100387.63
2022-11-10T02:06:54.468Z,100380.97
2022-11-10T02:09:40.103Z,100397.16
2022-11-10T02:12:37.571Z,100350.06
2022-11-10T02:15:24.648Z,100416.06
2022-11-10T02:18:09.647Z,100382.31
2022-11-10T02:20:54.972Z,100415.56
2022-11-10T02:23:39.995Z,100420.22
2022-11-10T02:26:30.146Z,100413.44
2022-11-10T02:29:15.607Z,100430.75
2022-11-10T02:32:00.635Z,100422.56
2022-11-10T02:34:45.733Z,100408.13
2022-11-10T02:37:30.860Z,100442.28
2022-11-10T02:40:16.221Z,100427.84
2022-11-10T02:43:04.176Z,100424.06
2022-11-10T02:45:49.486Z,100423.56
2022-11-10T02:48:34.715Z,100441.09
2022-11-10T02:51:20.028Z,100426.28
2022-11-10T02:54:06.205Z,100451.75
2022-11-10T02:56:51.504Z,100432.63
2022-11-10T02:59:36.787Z,100441.81
2022-11-10T03:02:22.094Z,100436.38
2022-11-10T03:05:07.419Z,100394.91
2022-11-10T03:07:55.406Z,100459.91
2022-11-10T03:10:40.628Z,100431.03
2022-11-10T03:13:35.591Z,100407.13
2022-11-10T03:16:31.580Z,100460.53
2022-11-10T03:19:16.806Z,100465.13
2022-11-10T03:22:02.106Z,100455.38
2022-11-10T03:24:47.171Z,100461.88
2022-11-10T03:27:32.620Z,100454.19
2022-11-10T03:30:17.668Z,100436.75
2022-11-10T03:33:03.175Z,100468.81
2022-11-10T03:35:48.613Z,100464.91
2022-11-10T03:38:33.933Z,100400.75
2022-11-10T03:41:20.521Z,100470.53
2022-11-10T03:44:06.304Z,100471.00
2022-11-10T03:46:52.015Z,100466.16
2022-11-10T03:49:37.397Z,100483.22
2022-11-10T03:52:22.445Z,100476.72
2022-11-10T03:55:09.595Z,100480.25
2022-11-10T03:57:54.873Z,100466.47
2022-11-10T04:00:40.099Z,100492.69
2022-11-10T04:03:25.793Z,100489.38
2022-11-10T04:06:30.458Z,100498.81
2022-11-10T04:09:15.931Z,100513.84
2022-11-10T04:12:24.657Z,100525.00
2022-11-10T04:15:30.327Z,100502.81
2022-11-10T04:18:21.657Z,100498.06
2022-11-10T04:21:06.858Z,100515.28
2022-11-10T04:23:52.240Z,100535.22
2022-11-10T04:26:38.829Z,100518.25
2022-11-10T04:29:23.750Z,100532.81
2022-11-10T04:32:08.866Z,100536.69
2022-11-10T04:34:53.917Z,100527.06
2022-11-10T04:37:39.090Z,100544.75
2022-11-10T04:40:24.528Z,100478.28
2022-11-10T04:43:09.653Z,100561.94
2022-11-10T04:45:55.662Z,100546.31
2022-11-10T04:48:41.039Z,100548.25
2022-11-10T04:51:32.139Z,100563.75
2022-11-10T04:54:17.551Z,100569.72
2022-11-10T04:57:02.883Z,100563.09
2022-11-10T04:59:48.353Z,100579.00
2022-11-10T05:02:38.303Z,100567.97
2022-11-10T05:05:25.106Z,100582.38
2022-11-10T05:08:10.556Z,100581.28
2022-11-10T05:10:55.989Z,100575.44
2022-11-10T05:13:42.239Z,100590.16
2022-11-10T05:16:27.576Z,100581.97
2022-11-10T05:19:13.111Z,100612.06
2022-11-10T05:21:58.479Z,100533.47
2022-11-10T05:24:43.662Z,100560.22
2022-11-10T05:27:29.925Z,100590.84
2022-11-10T05:30:15.431Z,100572.16
2022-11-10T05:33:01.354Z,100600.28
2022-11-10T05:35:49.054Z,100600.56
2022-11-10T05:38:37.730Z,100606.53
2022-11-10T05:41:25.695Z,100577.97
2022-11-10T05:44:10.747Z,100628.44
2022-11-10T05:46:55.759Z,100550.78
2022-11-10T05:49:40.735Z,100628.97
2022-11-10T05:52:25.979Z,100602.78
2022-11-10T05:55:12.437Z,100633.81
2022-11-10T05:57:57.858Z,100632.31
2022-11-10T06:00:43.521Z,100644.50
2022-11-10T06:03:28.952Z,100641.31
2022-11-10T06:06:14.408Z,100661.28
2022-11-10T06:08:59.713Z,100668.47
2022-11-10T06:11:45.030Z,100670.25
2022-11-10T06:14:30.508Z,100621.56
2022-11-10T06:17:15.760Z,100692.72
2022-11-10T06:20:01.138Z,100687.84
2022-11-10T06:23:07.855Z,100694.53
2022-11-10T06:25:53.258Z,100686.78
2022-11-10T06:28:38.520Z,100725.66
2022-11-10T06:31:23.784Z,100727.06
2022-11-10T06:34:09.085Z,100723.97
2022-11-10T06:36:54.370Z,100737.19
2022-11-10T06:39:39.727Z,100735.25
2022-11-10T06:42:24.969Z,100757.03
2022-11-10T06:45:10.297Z,100746.47
2022-11-10T06:48:03.276Z,100753.00
2022-11-10T06:50:48.546Z,100752.31
2022-11-10T06:53:34.492Z,100733.69
2022-11-10T06:56:19.767Z,100769.22
2022-11-10T06:59:04.928Z,100768.25
2022-11-10T07:01:50.501Z,100762.97
2022-11-10T07:04:35.750Z,100779.66
2022-11-10T07:07:21.216Z,100778.25
2022-11-10T07:10:08.961Z,100751.34
2022-11-10T07:13:02.347Z,100785.06
2022-11-10T07:15:48.082Z,100772.41
2022-11-10T07:18:34.203Z,100813.94
2022-11-10T07:21:19.470Z,100794.78
2022-11-10T07:24:04.770Z,100806.56
2022-11-10T07:26:50.218Z,100805.16
2022-11-10T07:29:35.406Z,100820.13
2022-11-10T07:32:20.497Z,100821.22
2022-11-10T07:35:05.591Z,100819.00
2022-11-10T07:37:51.120Z,100832.63
2022-11-10T07:40:36.990Z,100846.53
2022-11-10T07:43:24.287Z,100847.66
2022-11-10T07:46:10.344Z,100855.00
2022-11-10T07:48:55.634Z,100840.59
2022-11-10T07:51:42.766Z,100831.28
2022-11-10T07:54:28.236Z,100863.22
2022-11-10T07:57:13.470Z,100857.03
2022-11-10T07:59:58.673Z,100854.78
2022-11-10T08:02:43.798Z,100864.66
2022-11-10T08:05:28.879Z,100867.97
2022-11-10T08:08:14.533Z,100830.19
2022-11-10T08:10:59.967Z,100867.03
2022-11-10T08:13:45.019Z,100861.56
2022-11-10T08:16:30.059Z,100854.44
2022-11-10T08:19:15.357Z,100844.16
2022-11-10T08:22:00.888Z,100828.03
2022-11-10T08:24:46.006Z,100848.63
2022-11-10T08:27:31.420Z,100850.28
2022-11-10T08:30:16.655Z,100848.13
2022-11-10T08:33:03.030Z,100833.00
2022-11-10T08:35:50.292Z,100862.69
2022-11-10T08:38:35.775Z,100852.38
2022-11-10T08:41:21.195Z,100849.88
2022-11-10T08:44:10.723Z,100856.66
2022-11-10T08:46:56.380Z,100858.34
2022-11-10T08:49:41.750Z,100838.63
2022-11-10T08:52:26.729Z,100858.16
2022-11-10T08:55:11.862Z,100850.56
2022-11-10T08:58:01.712Z,100865.97
2022-11-10T09:00:47.241Z,100878.69
2022-11-10T09:03:32.753Z,100867.63
2022-11-10T09:06:18.241Z,100858.00
2022-11-10T09:09:03.811Z,100835.69
2022-11-10T09:11:48.973Z,100819.25
2022-11-10T09:14:34.038Z,100834.22
2022-11-10T09:17:19.229Z,100857.47
2022-11-10T09:20:06.216Z,100833.59
2022-11-10T09:22:51.596Z,100848.31
2022-11-10T09:25:38.060Z,100810.75
2022-11-10T09:28:23.823Z,100836.28
2022-11-10T09:31:09.264Z,100816.34
2022-11-10T09:33:54.687Z,100784.28
2022-11-10T09:36:40.758Z,100771.81
2022-11-10T09:39:26.216Z,100799.66
2022-11-10T09:42:34.337Z,100778.47
2022-11-10T09:45:45.906Z,100816.25
2022-11-10T09:48:37.613Z,100802.75
2022-11-10T09:51:31.531Z,100823.19
2022-11-10T09:54:22.388Z,100815.06
2022-11-10T09:57:13.039Z,100834.47
2022-11-10T09:59:58.438Z,100857.00
2022-11-10T10:02:56.138Z,100876.88
2022-11-10T10:06:07.148Z,100852.56
2022-11-10T10:09:11.788Z,100875.28
2022-11-10T10:12:17.585Z,100846.31
2022-11-10T10:15:15.216Z,100806.72
2022-11-10T10:18:25.106Z,100812.72
2022-11-10T10:21:22.669Z,100825.81
2022-11-10T10:24:21.410Z,100826.91
2022-11-10T10:27:15.545Z,100819.63
2022-11-10T10:30:01.168Z,100802.38
2022-11-10T10:32:46.554Z,100804.25
2022-11-10T10:35:37.681Z,100807.72
2022-11-10T10:38:32.696Z,100793.34
2022-11-10T10:41:25.344Z,100811.81
2022-11-10T10:44:16.126Z,100812.09
2022-11-10T10:47:02.873Z,100803.53
2022-11-10T10:49:48.395Z,100799.81
2022-11-10T10:52:33.609Z,100795.25
2022-11-10T10:55:18.703Z,100770.88
2022-11-10T10:58:24.029Z,100779.28
2022-11-10T11:01:15.586Z,100794.66
2022-11-10T11:04:06.159Z,100767.97
2022-11-10T11:07:05.997Z,100788.81
2022-11-10T11:09:51.259Z,100770.19
2022-11-10T11:12:36.781Z,100782.94
2022-11-10T11:15:26.628Z,100787.06
2022-11-10T11:18:17.435Z,100789.25
2022-11-10T11:21:34.893Z,100798.00
2022-11-10T11:25:00.988Z,100779.38
2022-11-10T11:28:07.671Z,100784.69
2022-11-10T11:31:27.439Z,100800.25
2022-11-10T11:34:32.557Z,100796.03
2022-11-10T11:37:33.889Z,100789.78
2022-11-10T11:40:27.259Z,100751.31
2022-11-10T11:43:31.261Z,100816.31
2022-11-10T11:46:44.980Z,100818.22
2022-11-10T11:49:43.210Z,100813.19
2022-11-10T11:52:36.094Z,100809.69
2022-11-10T11:55:32.109Z,100806.13
2022-11-10T11:58:25.375Z,100765.75
2022-11-10T12:01:30.017Z,100816.88
2022-11-10T12:04:24.200Z,100794.34
2022-11-10T12:07:52.812Z,100792.63
2022-11-10T12:11:07.235Z,100799.03
2022-11-10T12:14:11.332Z,100804.09
2022-11-10T12:17:20.123Z,100754.91
2022-11-10T12:20:40.883Z,100801.22
2022-11-10T12:23:41.235Z,100798.16
2022-11-10T12:26:38.447Z,100807.75
2022-11-10T12:29:53.234Z,100818.16
2022-11-10T12:32:50.971Z,100822.56
2022-11-10T12:35:41.408Z,100814.41
2022-11-10T12:38:40.244Z,100811.38
2022-11-10T12:41:31.796Z,100818.06
2022-11-10T12:44:42.291Z,100822.41
2022-11-10T12:47:34.124Z,100825.78
2022-11-10T12:50:28.375Z,100793.44
2022-11-10T12:53:33.597Z,100817.88
2022-11-10T12:56:27.191Z,100806.53
2022-11-10T12:59:21.733Z,100819.88
2022-11-10T13:02:16.253Z,100816.09
2022-11-10T13:05:25.673Z,100822.84
2022-11-10T13:08:30.894Z,100829.03
2022-11-10T13:11:16.138Z,100834.94
2022-11-10T13:14:03.907Z,100833.34
2022-11-10T13:16:53.902Z,100824.94
2022-11-10T13:19:39.234Z,100847.56
2022-11-10T13:22:30.739Z,100838.25
2022-11-10T13:25:37.702Z,100856.81
2022-11-10T13:28:47.886Z,100839.44
2022-11-10T13:31:33.003Z,100853.25
2022-11-10T13:34:17.957Z,100858.50
2022-11-10T13:37:24.332Z,100845.00
2022-11-10T13:40:18.648Z,100838.72
2022-11-10T13:43:03.729Z,100829.78
2022-11-10T13:45:58.876Z,100832.91
2022-11-10T13:48:59.148Z,100843.22
2022-11-10T13:51:48.719Z,100822.97
2022-11-10T13:54:34.149Z,100825.63
2022-11-10T13:57:28.743Z,100837.75
2022-11-10T14:00:13.907Z,100836.25
2022-11-10T14:03:03.337Z,100838.56
2022-11-10T14:06:11.958Z,100852.56
2022-11-10T14:09:17.888Z,100817.41
2022-11-10T14:12:14.992Z,100839.56
2022-11-10T14:15:12.590Z,100862.13
2022-11-10T14:17:58.179Z,100862.09
2022-11-10T14:20:46.339Z,100818.28
2022-11-10T14:23:40.306Z,100851.81
2022-11-10T14:26:45.013Z,100868.53
2022-11-10T14:29:31.501Z,100844.94
2022-11-10T14:32:21.248Z,100869.34
2022-11-10T14:35:17.187Z,100876.28
2022-11-10T14:38:06.918Z,100870.09
2022-11-10T14:41:01.407Z,100887.13
2022-11-10T14:44:11.657Z,100879.47
2022-11-10T14:47:12.339Z,100907.00
2022-11-10T14:50:28.199Z,100897.31
2022-11-10T14:53:23.279Z,100896.59
2022-11-10T14:56:17.300Z,100912.34
2022-11-10T14:59:05.961Z,100892.41
2022-11-10T15:02:00.541Z,100901.44
2022-11-10T15:04:50.068Z,100896.97
2022-11-10T15:07:35.530Z,100905.72
2022-11-10T15:10:43.612Z,100902.91
2022-11-10T15:13:31.832Z,100913.66
2022-11-10T15:16:36.609Z,100917.41
2022-11-10T15:19:27.644Z,100924.44
2022-11-10T15:22:12.883Z,100923.84
2022-11-10T15:25:07.914Z,100921.94
2022-11-10T15:27:57.819Z,100911.38
2022-11-10T15:30:55.385Z,100931.06
2022-11-10T15:33:46.774Z,100946.53
2022-11-10T15:36:35.674Z,100935.66
2022-11-10T15:39:26.551Z,100961.25
2022-11-10T15:42:15.947Z,100968.59
2022-11-10T15:45:01.349Z,100970.94
2022-11-10T15:47:47.085Z,100934.47
2022-11-10T15:50:32.612Z,100949.63
2022-11-10T15:53:27.641Z,100968.06
2022-11-10T15:56:14.745Z,100955.59
2022-11-10T15:59:02.573Z,100964.75
2022-11-10T16:01:48.821Z,100974.06
2022-11-10T16:04:34.079Z,100970.22
2022-11-10T16:07:19.474Z,100975.84
2022-11-10T16:10:06.129Z,100924.56
2022-11-10T16:12:51.725Z,100989.31
2022-11-10T16:15:38.295Z,100992.69
2022-11-10T16:18:26.585Z,100988.13
2022-11-10T16:21:16.902Z,100988.19
2022-11-10T16:24:02.577Z,101014.00
2022-11-10T16:26:48.018Z,101003.63
2022-11-10T16:29:35.267Z,101019.09
2022-11-10T16:32:20.534Z,101026.81
2022-11-10T16:35:05.960Z,101010.41
2022-11-10T16:37:51.176Z,101015.56
2022-11-10T16:40:37.500Z,101034.44
2022-11-10T16:43:23.653Z,101009.22
2022-11-10T16:46:29.559Z,101021.50
2022-11-10T16:49:26.213Z,100984.66
2022-11-10T16:52:15.299Z,101009.66
2022-11-10T16:55:00.404Z,101032.13
2022-11-10T16:57:45.774Z,101022.84
2022-11-10T17:00:30.950Z,101036.25
2022-11-10T17:03:28.409Z,101041.16
2022-11-10T17:06:15.624Z,101055.19
2022-11-10T17:09:07.982Z,101052.13
2022-11-10T17:11:52.943Z,101043.69
2022-11-10T17:14:38.011Z,101044.41
2022-11-10T17:17:23.662Z,101045.28
2022-11-10T17:20:17.615Z,100986.97
2022-11-10T17:23:04.275Z,101077.47
2022-11-10T17:25:50.993Z,101083.88
2022-11-10T17:28:36.167Z,100972.69
2022-11-10T17:31:21.798Z,101072.38
2022-11-10T17:34:07.355Z,101040.28
2022-11-10T17:36:52.644Z,101086.97
2022-11-10T17:39:38.848Z,101081.44
2022-11-10T17:42:24.022Z,101096.59
2022-11-10T17:45:17.181Z,101100.66
2022-11-10T17:48:02.235Z,101047.25
2022-11-10T17:50:47.634Z,101091.16
2022-11-10T17:53:33.200Z,101051.28
2022-11-10T17:56:18.837Z,101011.31
2022-11-10T17:59:04.085Z,101107.59
2022-11-10T18:01:49.203Z,101102.72
2022-11-10T18:04:34.384Z,100998.34
2022-11-10T18:07:19.773Z,101107.03
2022-11-10T18:10:06.554Z,101112.06
2022-11-10T18:12:51.864Z,101069.84
2022-11-10T18:15:40.921Z,101125.25
2022-11-10T18:18:26.271Z,101111.72
2022-11-10T18:21:12.022Z,101012.03
2022-11-10T18:23:57.104Z,101136.41
2022-11-10T18:26:42.661Z,101141.25
2022-11-10T18:29:27.891Z,101139.28
2022-11-10T18:32:13.568Z,101156.38
2022-11-10T18:34:58.774Z,101142.19
2022-11-10T18:37:43.895Z,101061.97
2022-11-10T18:40:29.006Z,101137.34
2022-11-10T18:43:14.460Z,101120.06
2022-11-10T18:45:59.838Z,101133.13
2022-11-10T18:48:46.355Z,101138.06
2022-11-10T18:51:32.231Z,101131.25
2022-11-10T18:54:17.770Z,101137.75
2022-11-10T18:57:03.119Z,101110.31
2022-11-10T18:59:48.348Z,101056.72
2022-11-10T19:02:34.362Z,101132.34
2022-11-10T19:05:19.706Z,101123.53
2022-11-10T19:08:07.036Z,101142.94
2022-11-10T19:10:52.926Z,101134.88
2022-11-10T19:13:38.353Z,101135.72
2022-11-10T19:16:23.309Z,101155.00
2022-11-10T19:19:10.098Z,101083.56
2022-11-10T19:21:55.580Z,101119.91
2022-11-10T19:25:00.824Z,101149.25
2022-11-10T19:27:46.202Z,101125.03
2022-11-10T19:30:31.576Z,101088.94
2022-11-10T19:33:16.829Z,101108.81
2022-11-10T19:36:04.499Z,101169.09
2022-11-10T19:38:50.326Z,101149.75
2022-11-10T19:41:35.910Z,101154.44
2022-11-10T19:44:21.440Z,101139.25
2022-11-10T19:47:06.543Z,101090.81
2022-11-10T19:49:51.511Z,101162.03
2022-11-10T19:52:37.078Z,101165.56
2022-11-10T19:55:22.532Z,101199.06
2022-11-10T19:58:08.536Z,101173.94
2022-11-10T20:00:54.517Z,101212.75
2022-11-10T20:03:40.286Z,101180.59
2022-11-10T20:06:25.638Z,101204.91
2022-11-10T20:09:10.822Z,101206.38
2022-11-10T20:11:56.277Z,101215.69
2022-11-10T20:14:41.289Z,101202.06
2022-11-10T20:17:26.775Z,101221.72
2022-11-10T20:20:12.329Z,101233.81
2022-11-10T20:23:02.345Z,101231.44
2022-11-10T20:25:47.902Z,101230.94
2022-11-10T20:28:35.819Z,101248.75
2022-11-10T20:31:24.270Z,101238.69
2022-11-10T20:34:09.326Z,101188.03
2022-11-10T20:36:55.591Z,101248.91
2022-11-10T20:39:40.698Z,101243.09
2022-11-10T20:42:25.997Z,101223.84
2022-11-10T20:45:11.510Z,101238.31
2022-11-10T20:47:57.787Z,101242.72
2022-11-10T20:50:43.060Z,101248.22
2022-11-10T20:53:29.128Z,101235.22
2022-11-10T20:56:15.217Z,101242.13
2022-11-10T20:59:00.687Z,101250.66
2022-11-10T21:01:46.418Z,101261.41
2022-11-10T21:04:31.538Z,101262.38
2022-11-10T21:07:16.788Z,101235.72
2022-11-10T21:10:02.156Z,101245.06
2022-11-10T21:12:50.049Z,101262.25
2022-11-10T21:15:40.152Z,101267.88
2022-11-10T21:18:31.580Z,101249.06
2022-11-10T21:21:22.535Z,101255.88
2022-11-10T21:24:09.250Z,101225.25
2022-11-10T21:26:55.794Z,101249.78
2022-11-10T21:29:42.262Z,101233.41
2022-11-10T21:32:27.841Z,101239.03
2022-11-10T21:35:13.251Z,101212.81
2022-11-10T21:37:58.604Z,101232.91
2022-11-10T21:40:43.728Z,101237.69
2022-11-10T21:43:29.147Z,101237.84
2022-11-10T21:46:14.521Z,101194.44
2022-11-10T21:49:03.229Z,101242.41
2022-11-10T21:51:52.903Z,101244.22
2022-11-10T21:54:38.076Z,101215.22
2022-11-10T21:57:23.392Z,101242.78
2022-11-10T22:00:10.939Z,101239.41
2022-11-10T22:03:00.876Z,101235.09
2022-11-10T22:05:46.247Z,101235.00
2022-11-10T22:08:31.951Z,101247.81
2022-11-10T22:11:38.790Z,101252.69
2022-11-10T22:14:42.798Z,101243.94
2022-11-10T22:17:46.562Z,101244.34
2022-11-10T22:20:31.989Z,101257.84
2022-11-10T22:23:17.139Z,101264.78
2022-11-10T22:26:02.499Z,101281.03
2022-11-10T22:28:48.137Z,101246.06
2022-11-10T22:31:33.779Z,101231.22
2022-11-10T22:34:20.161Z,101256.94
2022-11-10T22:37:05.610Z,101245.94
2022-11-10T22:40:09.442Z,101233.38
2022-11-10T22:43:13.418Z,101224.88
2022-11-10T22:45:58.802Z,101230.72
2022-11-10T22:48:44.288Z,101248.41
2022-11-10T22:51:30.841Z,101248.72
2022-11-10T22:54:18.598Z,101236.72
2022-11-10T22:57:03.894Z,101270.53
2022-11-10T22:59:48.978Z,101274.84
2022-11-10T23:02:34.206Z,101271.06
2022-11-10T23:05:19.799Z,101255.69
2022-11-10T23:08:05.551Z,101251.75
2022-11-10T23:11:05.200Z,101212.88
2022-11-10T23:13:51.002Z,101240.31
2022-11-10T23:16:36.454Z,101260.16
2022-11-10T23:19:21.587Z,101255.03
2022-11-10T23:22:06.838Z,101259.16
2022-11-10T23:24:57.056Z,101241.78
2022-11-10T23:27:42.695Z,101274.91
2022-11-10T23:30:27.756Z,101270.16
2022-11-10T23:33:12.954Z,101257.75
2022-11-10T23:35:57.983Z,101235.22
2022-11-10T23:38:44.522Z,101246.06
2022-11-10T23:41:29.878Z,101249.84
2022-11-10T23:44:15.100Z,101225.94
2022-11-10T23:47:00.250Z,101254.19
2022-11-10T23:49:45.248Z,101263.03
2022-11-10T23:52:30.686Z,101271.53
2022-11-10T23:55:15.829Z,101252.91
2022-11-10T23:58:01.260Z,101210.41
